CheckWX is a tool to help pilots better visualize weather data.  It is not intended as a substitute for an official pre-flight weather briefing.

02:19:52 UTC

KELY METAR
Ely Arpt / Yelland Field / Airport
Ely, Nevada, USA
Current

27 mins ago

KELY 180153Z AUTO 21006KT 10SM SCT075 M14/M16 A2977 RMK AO2 SLP174 T11391156
Observed
Feb-18 @ 01:53 UTC
Wind
  • 210° at 6 KTS
Visibility
10 SM
Flight Rules
VFR
Cloud Levels
  • Scattered at 7,500' AGL
Temperature
-14°C / 7°F
Dewpoint
-16°C / 3°F
Humidity
85%
Altimeter
29.77" Hg
Pressure
1017.4 hPa
Previous

1 hour ago

KELY 180053Z AUTO 16003KT 10SM FEW070 BKN085 M07/M12 A2977 RMK AO2 SLP144 T10671117
Observed
Feb-18 @ 00:53 UTC
Wind
  • 160° at 3 KTS
Visibility
10 SM
Flight Rules
VFR
Cloud Levels
  • Few at 7,000' AGL
  • Broken at 8,500' AGL
Temperature
-7°C / 19°F
Dewpoint
-12°C / 10°F
Humidity
68%
Altimeter
29.77" Hg
Pressure
1014.4 hPa
Previous

2 hours ago

KELY 172353Z AUTO 00000KT 10SM BKN065 OVC080 M06/M10 A2977 RMK AO2 SNE31 SLP141 P0000 60001 T10611100 11033 21100 53002
Observed
Feb-17 @ 23:53 UTC
Visibility
10 SM
Flight Rules
VFR
Cloud Levels
  • Broken at 6,500' AGL
  • Overcast at 8,000' AGL
Temperature
-6°C / 21°F
Dewpoint
-10°C / 14°F
Humidity
74%
Altimeter
29.77" Hg
Pressure
1014.1 hPa
Current Rain
0.01"